createdAt,value
2022-10-13T00:00:13.682Z,10.27
2022-10-13T00:02:40.426Z,10.17
2022-10-13T00:05:07.597Z,9.97
2022-10-13T00:07:34.455Z,10.23
2022-10-13T00:10:01.204Z,10.50
2022-10-13T00:12:28.050Z,10.67
2022-10-13T00:14:54.896Z,10.57
2022-10-13T00:17:21.701Z,10.37
2022-10-13T00:19:48.455Z,12.83
2022-10-13T00:22:15.302Z,11.47
2022-10-13T00:24:42.385Z,11.03
2022-10-13T00:27:09.152Z,11.53
2022-10-13T00:29:35.953Z,10.83
2022-10-13T00:32:02.732Z,11.37
2022-10-13T00:34:29.475Z,12.40
2022-10-13T00:36:56.340Z,11.53
2022-10-13T00:39:23.177Z,10.90
2022-10-13T00:41:50.011Z,11.27
2022-10-13T00:44:53.683Z,11.90
2022-10-13T00:47:21.707Z,12.07
2022-10-13T00:49:50.210Z,11.43
2022-10-13T00:52:18.503Z,13.13
2022-10-13T00:54:45.968Z,13.13
2022-10-13T00:57:13.455Z,11.57
2022-10-13T00:59:41.137Z,12.20
2022-10-13T01:02:08.798Z,11.60
2022-10-13T01:04:39.955Z,11.03
2022-10-13T01:07:07.294Z,12.00
2022-10-13T01:09:42.303Z,12.40
2022-10-13T01:12:21.569Z,11.60
2022-10-13T01:15:19.024Z,12.33
2022-10-13T01:18:00.525Z,11.63
2022-10-13T01:20:58.689Z,12.00
2022-10-13T01:23:43.990Z,11.43
2022-10-13T01:26:44.670Z,11.63
2022-10-13T01:29:53.055Z,11.90
2022-10-13T01:32:24.476Z,11.40
2022-10-13T01:35:09.388Z,11.40
2022-10-13T01:38:03.753Z,11.53
2022-10-13T01:40:59.443Z,12.17
2022-10-13T01:43:36.794Z,11.83
2022-10-13T01:46:13.878Z,12.20
2022-10-13T01:48:41.679Z,12.50
2022-10-13T01:51:12.383Z,11.97
2022-10-13T01:53:40.061Z,12.30
2022-10-13T01:56:07.178Z,12.40
2022-10-13T01:58:36.608Z,13.00
2022-10-13T02:01:42.309Z,13.07
2022-10-13T02:04:54.005Z,12.53
2022-10-13T02:07:24.144Z,12.13
2022-10-13T02:09:53.889Z,12.73
2022-10-13T02:12:26.977Z,12.77
2022-10-13T02:14:58.618Z,12.60
2022-10-13T02:17:27.340Z,12.53
2022-10-13T02:19:55.612Z,12.83
2022-10-13T02:22:27.765Z,12.70
2022-10-13T02:24:54.692Z,12.90
2022-10-13T02:27:22.758Z,13.23
2022-10-13T02:29:57.686Z,12.63
2022-10-13T02:32:24.713Z,12.87
2022-10-13T02:34:52.353Z,12.97
2022-10-13T02:37:19.444Z,12.40
2022-10-13T02:39:46.270Z,12.90
2022-10-13T02:42:13.196Z,12.07
2022-10-13T02:44:40.229Z,12.67
2022-10-13T02:47:07.025Z,12.60
2022-10-13T02:49:33.766Z,11.73
2022-10-13T02:52:00.538Z,12.80
2022-10-13T02:54:27.333Z,11.70
2022-10-13T02:56:54.498Z,12.90
2022-10-13T02:59:21.241Z,13.40
2022-10-13T03:01:48.123Z,12.93
2022-10-13T03:04:14.971Z,12.33
2022-10-13T03:06:41.769Z,12.63
2022-10-13T03:09:08.523Z,11.97
2022-10-13T03:11:35.390Z,11.80
2022-10-13T03:14:02.193Z,12.57
2022-10-13T03:16:28.970Z,11.83
2022-10-13T03:18:56.102Z,12.30
2022-10-13T03:21:22.867Z,12.27
2022-10-13T03:23:49.663Z,12.40
2022-10-13T03:26:17.101Z,12.30
2022-10-13T03:28:43.897Z,12.73
2022-10-13T03:31:11.593Z,13.23
2022-10-13T03:33:39.496Z,12.77
2022-10-13T03:36:07.528Z,12.13
2022-10-13T03:38:35.314Z,11.97
2022-10-13T03:41:10.070Z,12.93
2022-10-13T03:43:37.045Z,12.50
2022-10-13T03:46:05.966Z,12.60
2022-10-13T03:48:34.333Z,12.20
2022-10-13T03:51:05.221Z,13.67
2022-10-13T03:53:32.383Z,12.13
2022-10-13T03:55:59.104Z,12.30
2022-10-13T03:58:28.511Z,14.90
2022-10-13T04:00:56.284Z,13.37
2022-10-13T04:03:24.506Z,12.83
2022-10-13T04:05:51.367Z,13.63
2022-10-13T04:08:18.421Z,12.77
2022-10-13T04:10:45.336Z,12.53
2022-10-13T04:13:12.094Z,13.70
2022-10-13T04:15:40.322Z,12.23
2022-10-13T04:18:08.229Z,13.43
2022-10-13T04:20:40.069Z,13.07
2022-10-13T04:23:07.324Z,12.27
2022-10-13T04:25:38.740Z,13.40
2022-10-13T04:28:07.017Z,12.43
2022-10-13T04:30:35.218Z,12.63
2022-10-13T04:33:02.238Z,12.50
2022-10-13T04:35:29.308Z,13.10
2022-10-13T04:37:59.078Z,12.40
2022-10-13T04:40:27.382Z,13.23
2022-10-13T04:42:54.195Z,12.27
2022-10-13T04:45:20.994Z,12.00
2022-10-13T04:47:47.764Z,12.13
2022-10-13T04:50:14.569Z,11.93
2022-10-13T04:52:41.309Z,12.27
2022-10-13T04:55:09.119Z,11.50
2022-10-13T04:57:36.117Z,11.70
2022-10-13T05:00:03.973Z,12.77
2022-10-13T05:02:30.701Z,12.07
2022-10-13T05:04:57.509Z,11.73
2022-10-13T05:07:24.385Z,11.73
2022-10-13T05:09:51.939Z,12.07
2022-10-13T05:12:19.114Z,10.90
2022-10-13T05:14:46.217Z,11.87
2022-10-13T05:17:13.060Z,12.40
2022-10-13T05:19:39.885Z,11.00
2022-10-13T05:22:06.623Z,11.63
2022-10-13T05:24:36.779Z,11.60
2022-10-13T05:27:11.567Z,10.80
2022-10-13T05:29:39.149Z,12.13
2022-10-13T05:32:06.578Z,10.87
2022-10-13T05:34:33.795Z,12.03
2022-10-13T05:37:01.264Z,11.00
2022-10-13T05:39:28.234Z,10.27
2022-10-13T05:41:55.346Z,11.13
2022-10-13T05:44:22.290Z,11.63
2022-10-13T05:46:49.757Z,11.43
2022-10-13T05:49:16.990Z,11.00
2022-10-13T05:51:47.719Z,11.33
2022-10-13T05:54:26.427Z,10.53
2022-10-13T05:57:16.989Z,10.87
2022-10-13T05:59:50.968Z,11.57
2022-10-13T06:02:19.688Z,11.77
2022-10-13T06:04:50.500Z,11.03
2022-10-13T06:07:17.851Z,10.40
2022-10-13T06:09:44.737Z,11.63
2022-10-13T06:12:11.557Z,11.73
2022-10-13T06:14:38.436Z,10.80
2022-10-13T06:17:05.198Z,11.97
2022-10-13T06:19:32.045Z,10.43
2022-10-13T06:22:03.411Z,15.37
2022-10-13T06:24:30.674Z,10.43
2022-10-13T06:26:57.623Z,10.90
2022-10-13T06:29:24.377Z,10.33
2022-10-13T06:31:51.192Z,10.57
2022-10-13T06:34:18.171Z,10.13
2022-10-13T06:36:44.983Z,10.70
2022-10-13T06:39:11.779Z,10.40
2022-10-13T06:41:38.633Z,10.60
2022-10-13T06:44:05.659Z,10.10
2022-10-13T06:46:32.431Z,10.37
2022-10-13T06:48:59.291Z,10.13
2022-10-13T06:51:26.134Z,9.33
2022-10-13T06:53:53.054Z,9.50
2022-10-13T06:56:19.806Z,9.33
2022-10-13T06:58:46.603Z,8.67
2022-10-13T07:01:13.901Z,9.93
2022-10-13T07:03:41.163Z,10.20
2022-10-13T07:06:08.385Z,9.60
2022-10-13T07:08:35.686Z,9.77
2022-10-13T07:11:16.192Z,9.53
2022-10-13T07:13:46.442Z,9.03
2022-10-13T07:16:14.852Z,8.83
2022-10-13T07:18:41.914Z,9.17
2022-10-13T07:21:09.482Z,10.13
2022-10-13T07:23:36.361Z,9.20
2022-10-13T07:26:08.117Z,10.37
2022-10-13T07:28:35.361Z,9.30
2022-10-13T07:31:14.316Z,9.27
2022-10-13T07:33:42.848Z,9.83
2022-10-13T07:36:10.445Z,9.13
2022-10-13T07:38:37.411Z,10.03
2022-10-13T07:41:06.284Z,8.53
2022-10-13T07:43:33.921Z,8.90
2022-10-13T07:46:04.578Z,9.57
2022-10-13T07:48:32.316Z,9.40
2022-10-13T07:50:59.259Z,9.93
2022-10-13T07:53:25.966Z,9.77
2022-10-13T07:55:52.926Z,8.37
2022-10-13T07:58:19.754Z,8.27
2022-10-13T08:00:55.143Z,9.17
2022-10-13T08:03:22.072Z,9.10
2022-10-13T08:05:48.933Z,7.93
2022-10-13T08:08:15.801Z,8.97
2022-10-13T08:10:42.703Z,7.87
2022-10-13T08:13:11.340Z,8.93
2022-10-13T08:15:42.221Z,9.03
2022-10-13T08:18:13.729Z,8.70
2022-10-13T08:20:43.769Z,9.13
2022-10-13T08:23:12.133Z,8.70
2022-10-13T08:25:43.335Z,8.20
2022-10-13T08:28:20.313Z,9.00
2022-10-13T08:30:47.735Z,9.03
2022-10-13T08:33:14.809Z,8.00
2022-10-13T08:35:42.498Z,8.70
2022-10-13T08:38:09.444Z,8.63
2022-10-13T08:40:37.333Z,8.80
2022-10-13T08:43:15.401Z,8.50
2022-10-13T08:45:42.691Z,7.90
2022-10-13T08:48:22.914Z,8.57
2022-10-13T08:50:54.396Z,9.37
2022-10-13T08:53:42.149Z,8.87
2022-10-13T08:56:18.803Z,8.33
2022-10-13T08:58:46.559Z,8.87
2022-10-13T09:01:26.528Z,8.43
2022-10-13T09:04:00.552Z,9.53
2022-10-13T09:06:33.084Z,8.53
2022-10-13T09:09:03.852Z,8.57
2022-10-13T09:11:36.511Z,8.57
2022-10-13T09:14:06.305Z,8.43
2022-10-13T09:16:39.663Z,8.87
2022-10-13T09:19:24.691Z,9.03
2022-10-13T09:22:13.886Z,8.50
2022-10-13T09:24:40.920Z,8.77
2022-10-13T09:27:16.964Z,8.40
2022-10-13T09:29:45.273Z,8.73
2022-10-13T09:32:19.565Z,8.37
2022-10-13T09:34:48.178Z,8.67
2022-10-13T09:37:34.707Z,8.73
2022-10-13T09:40:20.402Z,8.40
2022-10-13T09:42:54.421Z,8.03
2022-10-13T09:45:24.024Z,7.97
2022-10-13T09:47:53.873Z,8.30
2022-10-13T09:50:28.118Z,8.27
2022-10-13T09:53:15.354Z,8.40
2022-10-13T09:55:42.128Z,8.53
2022-10-13T09:58:25.585Z,8.50
2022-10-13T10:00:53.878Z,9.13
2022-10-13T10:03:38.509Z,8.53
2022-10-13T10:06:11.481Z,8.20
2022-10-13T10:09:04.549Z,8.67
2022-10-13T10:11:40.584Z,8.47
2022-10-13T10:14:33.505Z,8.30
2022-10-13T10:17:20.856Z,8.77
2022-10-13T10:20:12.827Z,8.43
2022-10-13T10:22:52.968Z,8.57
2022-10-13T10:25:30.050Z,8.40
2022-10-13T10:28:02.803Z,8.53
2022-10-13T10:30:31.785Z,8.30
2022-10-13T10:33:08.125Z,8.73
2022-10-13T10:35:49.394Z,8.60
2022-10-13T10:38:34.519Z,8.63
2022-10-13T10:41:32.039Z,9.03
2022-10-13T10:44:10.444Z,8.23
2022-10-13T10:46:43.509Z,7.90
2022-10-13T10:49:20.144Z,8.17
2022-10-13T10:51:47.539Z,8.37
2022-10-13T10:54:31.292Z,8.77
2022-10-13T10:57:06.257Z,8.87
2022-10-13T10:59:54.555Z,7.90
2022-10-13T11:02:36.788Z,8.37
2022-10-13T11:05:06.356Z,8.40
2022-10-13T11:07:33.457Z,7.70
2022-10-13T11:10:01.248Z,7.33
2022-10-13T11:12:53.179Z,8.00
2022-10-13T11:15:38.835Z,7.27
2022-10-13T11:18:44.213Z,7.57
2022-10-13T11:21:11.268Z,7.60
2022-10-13T11:23:45.720Z,7.73
2022-10-13T11:26:29.076Z,7.63
2022-10-13T11:28:55.934Z,7.33
2022-10-13T11:31:33.719Z,7.27
2022-10-13T11:34:03.235Z,6.83
2022-10-13T11:36:49.936Z,6.70
2022-10-13T11:39:28.577Z,7.10
2022-10-13T11:42:12.764Z,8.07
2022-10-13T11:45:04.281Z,7.83
2022-10-13T11:51:00.255Z,7.73
2022-10-13T11:53:33.280Z,7.33
2022-10-13T11:56:01.522Z,6.80
2022-10-13T11:58:30.769Z,6.83
2022-10-13T12:01:01.957Z,7.03
2022-10-13T12:03:32.908Z,7.13
2022-10-13T12:06:04.831Z,7.03
2022-10-13T12:08:34.768Z,7.60
2022-10-13T12:11:05.944Z,6.30
2022-10-13T12:13:34.924Z,6.50
2022-10-13T12:16:06.360Z,6.03
2022-10-13T12:18:38.125Z,6.23
2022-10-13T12:21:15.265Z,6.40
2022-10-13T12:23:42.363Z,6.57
2022-10-13T12:26:16.608Z,7.00
2022-10-13T12:28:50.044Z,6.07
2022-10-13T12:31:29.377Z,5.73
2022-10-13T12:34:01.888Z,5.73
2022-10-13T12:36:34.292Z,6.23
2022-10-13T12:39:13.848Z,5.83
2022-10-13T12:41:45.108Z,5.70
2022-10-13T12:44:20.183Z,6.03
2022-10-13T12:46:48.432Z,6.30
2022-10-13T12:49:34.837Z,5.50
2022-10-13T12:52:10.779Z,6.53
2022-10-13T12:54:51.462Z,5.90
2022-10-13T12:57:36.210Z,6.00
2022-10-13T13:00:18.436Z,5.67
2022-10-13T13:03:02.862Z,5.47
2022-10-13T13:05:35.938Z,4.77
2022-10-13T13:08:05.707Z,5.43
2022-10-13T13:10:32.558Z,5.33
2022-10-13T13:13:15.108Z,5.10
2022-10-13T13:15:42.026Z,4.63
2022-10-13T13:18:26.882Z,4.60
2022-10-13T13:20:54.600Z,4.53
2022-10-13T13:23:23.404Z,5.03
2022-10-13T13:26:14.947Z,4.60
2022-10-13T13:28:53.491Z,4.53
2022-10-13T13:31:22.393Z,4.57
2022-10-13T13:33:49.925Z,4.70
2022-10-13T13:36:21.626Z,4.30
2022-10-13T13:38:49.368Z,4.43
2022-10-13T13:41:17.241Z,4.50
2022-10-13T13:43:44.128Z,4.67
2022-10-13T13:46:22.282Z,4.33
2022-10-13T13:48:49.190Z,4.50
2022-10-13T13:51:16.899Z,4.20
2022-10-13T13:53:43.994Z,4.53
2022-10-13T13:56:15.406Z,4.47
2022-10-13T13:58:42.672Z,4.83
2022-10-13T14:01:10.575Z,4.67
2022-10-13T14:03:37.619Z,4.47
2022-10-13T14:06:04.805Z,3.93
2022-10-13T14:08:42.208Z,4.50
2022-10-13T14:11:10.098Z,4.60
2022-10-13T14:13:36.937Z,4.10
2022-10-13T14:16:04.490Z,4.40
2022-10-13T14:18:31.646Z,4.27
2022-10-13T14:20:58.488Z,4.67
2022-10-13T14:23:25.513Z,4.67
2022-10-13T14:25:52.263Z,4.60
2022-10-13T14:28:19.149Z,4.77
2022-10-13T14:30:46.012Z,4.63
2022-10-13T14:33:12.763Z,4.13
2022-10-13T14:35:39.544Z,4.50
2022-10-13T14:38:06.429Z,4.13
2022-10-13T14:40:33.201Z,4.20
2022-10-13T14:43:00.014Z,4.57
2022-10-13T14:45:26.825Z,4.90
2022-10-13T14:47:53.768Z,5.00
2022-10-13T14:50:20.540Z,4.50
2022-10-13T14:52:47.343Z,4.30
2022-10-13T14:55:14.372Z,5.00
2022-10-13T14:57:41.301Z,4.60
2022-10-13T15:00:10.539Z,4.73
2022-10-13T15:02:37.359Z,4.63
2022-10-13T15:05:04.525Z,5.07
2022-10-13T15:07:31.447Z,5.10
2022-10-13T15:10:05.581Z,5.97
2022-10-13T15:12:33.141Z,4.97
2022-10-13T15:14:59.926Z,5.20
2022-10-13T15:17:26.927Z,4.70
2022-10-13T15:19:53.853Z,4.90
2022-10-13T15:22:20.843Z,4.70
2022-10-13T15:24:47.842Z,4.50
2022-10-13T15:27:14.745Z,4.73
2022-10-13T15:29:41.522Z,4.53
2022-10-13T15:32:11.083Z,4.57
2022-10-13T15:34:41.127Z,4.13
2022-10-13T15:37:08.033Z,4.63
2022-10-13T15:39:34.878Z,4.87
2022-10-13T15:42:02.164Z,5.03
2022-10-13T15:44:51.046Z,4.33
2022-10-13T15:47:17.944Z,4.90
2022-10-13T15:49:44.930Z,4.87
2022-10-13T15:52:11.771Z,5.10
2022-10-13T15:54:38.659Z,5.67
2022-10-13T15:57:05.382Z,5.43
2022-10-13T15:59:32.299Z,5.37
2022-10-13T16:02:00.841Z,5.93
2022-10-13T16:04:27.597Z,5.90
2022-10-13T16:06:54.411Z,5.87
2022-10-13T16:09:21.139Z,7.17
2022-10-13T16:11:47.961Z,6.97
2022-10-13T16:14:14.820Z,7.40
2022-10-13T16:16:41.686Z,7.67
2022-10-13T16:19:08.653Z,8.83
2022-10-13T16:21:35.532Z,8.20
2022-10-13T16:24:02.748Z,8.17
2022-10-13T16:26:29.550Z,9.67
2022-10-13T16:28:57.067Z,10.10
2022-10-13T16:31:24.169Z,10.00
2022-10-13T16:33:50.921Z,11.77
2022-10-13T16:36:19.297Z,10.40
2022-10-13T16:38:52.358Z,11.57
2022-10-13T16:41:20.769Z,12.30
2022-10-13T16:43:48.465Z,12.47
2022-10-13T16:46:19.331Z,12.10
2022-10-13T16:48:47.334Z,11.53
2022-10-13T16:51:20.428Z,12.13
2022-10-13T16:53:49.278Z,12.60
2022-10-13T16:56:21.125Z,13.07
2022-10-13T16:58:54.641Z,13.50
2022-10-13T17:01:21.902Z,13.10
2022-10-13T17:03:50.337Z,13.10
2022-10-13T17:06:19.931Z,14.30
2022-10-13T17:08:46.792Z,14.40
2022-10-13T17:11:21.081Z,14.43
2022-10-13T17:13:48.522Z,15.57
2022-10-13T17:16:16.251Z,15.30
2022-10-13T17:18:43.303Z,14.93
2022-10-13T17:21:14.119Z,14.17
2022-10-13T17:23:45.892Z,15.93
2022-10-13T17:26:16.954Z,15.07
2022-10-13T17:28:44.577Z,15.53
2022-10-13T17:31:15.458Z,16.00
2022-10-13T17:33:42.902Z,15.30
2022-10-13T17:36:15.569Z,15.60
2022-10-13T17:38:43.160Z,13.97
2022-10-13T17:41:11.201Z,15.37
2022-10-13T17:43:39.757Z,15.47
2022-10-13T17:46:34.664Z,14.60
2022-10-13T17:48:58.141Z,14.87
2022-10-13T17:51:25.104Z,15.57
2022-10-13T17:53:52.812Z,16.43
2022-10-13T17:56:24.573Z,17.17
2022-10-13T17:58:52.385Z,14.80
2022-10-13T18:01:25.796Z,15.87
2022-10-13T18:04:04.517Z,14.90
2022-10-13T18:06:38.683Z,15.13
2022-10-13T18:09:13.915Z,14.17
2022-10-13T18:11:48.486Z,14.73
2022-10-13T18:14:17.772Z,14.30
2022-10-13T18:16:44.651Z,13.77
2022-10-13T18:19:11.575Z,13.60
2022-10-13T18:21:38.680Z,13.60
2022-10-13T18:24:05.862Z,13.80
2022-10-13T18:26:35.898Z,13.57
2022-10-13T18:29:04.551Z,13.70
2022-10-13T18:31:33.261Z,13.93
2022-10-13T18:34:03.035Z,14.17
2022-10-13T18:36:36.978Z,14.27
2022-10-13T18:39:10.449Z,14.30
2022-10-13T18:41:37.985Z,13.93
2022-10-13T18:44:06.009Z,14.30
2022-10-13T18:46:33.640Z,13.43
2022-10-13T18:49:00.504Z,13.60
2022-10-13T18:51:33.393Z,12.87
2022-10-13T18:54:02.944Z,12.77
2022-10-13T18:56:31.231Z,13.20
2022-10-13T18:59:00.218Z,12.83
2022-10-13T19:01:29.334Z,13.53
2022-10-13T19:03:56.634Z,12.43
2022-10-13T19:06:27.015Z,13.03
2022-10-13T19:09:00.744Z,13.13
2022-10-13T19:11:29.027Z,13.10
2022-10-13T19:13:56.280Z,13.00
2022-10-13T19:16:25.563Z,13.17
2022-10-13T19:18:52.978Z,13.60
2022-10-13T19:21:21.847Z,12.37
2022-10-13T19:23:49.464Z,14.00
2022-10-13T19:26:19.701Z,13.67
2022-10-13T19:28:47.197Z,14.10
2022-10-13T19:31:17.052Z,13.63
2022-10-13T19:33:46.980Z,12.90
2022-10-13T19:36:24.434Z,13.37
2022-10-13T19:38:51.831Z,13.60
2022-10-13T19:41:19.264Z,13.80
2022-10-13T19:43:46.266Z,13.20
2022-10-13T19:46:13.122Z,13.63
2022-10-13T19:48:40.143Z,12.47
2022-10-13T19:51:08.703Z,12.97
2022-10-13T19:53:36.851Z,13.00
2022-10-13T19:56:04.375Z,13.30
2022-10-13T19:58:31.954Z,14.53
2022-10-13T20:01:04.925Z,14.43
2022-10-13T20:03:32.395Z,14.17
2022-10-13T20:05:59.368Z,14.93
2022-10-13T20:08:26.530Z,15.40
2022-10-13T20:10:54.934Z,14.53
2022-10-13T20:13:21.915Z,14.00
2022-10-13T20:15:48.826Z,14.73
2022-10-13T20:18:15.651Z,14.87
2022-10-13T20:20:43.292Z,14.30
2022-10-13T20:23:10.169Z,14.47
2022-10-13T20:25:38.150Z,15.10
2022-10-13T20:28:06.147Z,15.60
2022-10-13T20:30:33.711Z,14.87
2022-10-13T20:33:00.935Z,15.90
2022-10-13T20:35:27.942Z,16.20
2022-10-13T20:37:55.886Z,15.30
2022-10-13T20:40:22.800Z,17.33
2022-10-13T20:42:51.784Z,20.50
2022-10-13T20:45:19.906Z,17.53
2022-10-13T20:47:48.824Z,15.37
2022-10-13T20:50:16.049Z,14.90
2022-10-13T20:52:42.959Z,16.20
2022-10-13T20:55:12.463Z,16.40
2022-10-13T20:57:39.194Z,16.47
2022-10-13T21:00:06.742Z,16.93
2022-10-13T21:02:33.893Z,17.27
2022-10-13T21:05:00.743Z,17.27
2022-10-13T21:07:28.462Z,18.40
2022-10-13T21:09:55.375Z,18.47
2022-10-13T21:12:22.254Z,18.97
2022-10-13T21:14:49.215Z,17.87
2022-10-13T21:17:16.491Z,18.70
2022-10-13T21:19:43.253Z,17.37
2022-10-13T21:22:10.040Z,17.77
2022-10-13T21:24:37.005Z,17.60
2022-10-13T21:27:03.964Z,17.37
2022-10-13T21:29:30.930Z,16.87
2022-10-13T21:31:57.775Z,17.90
2022-10-13T21:34:24.750Z,16.77
2022-10-13T21:36:51.604Z,17.80
2022-10-13T21:39:18.800Z,17.63
2022-10-13T21:41:45.707Z,18.27
2022-10-13T21:44:15.687Z,18.60
2022-10-13T21:46:42.541Z,20.03
2022-10-13T21:49:09.820Z,19.37
2022-10-13T21:51:38.811Z,19.43
2022-10-13T21:54:10.980Z,19.67
2022-10-13T21:56:39.934Z,19.70
2022-10-13T21:59:07.428Z,19.43
2022-10-13T22:01:34.855Z,20.07
2022-10-13T22:04:02.706Z,19.77
2022-10-13T22:06:32.135Z,20.07
2022-10-13T22:09:00.923Z,21.90
2022-10-13T22:11:30.604Z,20.20
2022-10-13T22:13:57.804Z,19.43
2022-10-13T22:16:27.645Z,20.60
2022-10-13T22:18:56.092Z,21.30
2022-10-13T22:21:26.053Z,19.97
2022-10-13T22:24:00.700Z,21.60
2022-10-13T22:26:29.334Z,20.90
2022-10-13T22:29:03.341Z,21.77
2022-10-13T22:31:32.671Z,22.83
2022-10-13T22:34:00.667Z,22.80
2022-10-13T22:36:28.915Z,22.33
2022-10-13T22:38:59.743Z,24.77
2022-10-13T22:41:26.684Z,23.33
2022-10-13T22:43:55.876Z,24.40
2022-10-13T22:46:25.124Z,24.70
2022-10-13T22:48:52.320Z,24.53
2022-10-13T22:51:21.661Z,26.33
2022-10-13T22:53:49.329Z,26.20
2022-10-13T22:56:18.682Z,26.97
2022-10-13T22:58:53.363Z,28.30
2022-10-13T23:01:21.213Z,26.53
2022-10-13T23:03:49.802Z,29.00
2022-10-13T23:06:19.339Z,27.63
2022-10-13T23:08:46.108Z,26.97
2022-10-13T23:11:13.666Z,26.70
2022-10-13T23:13:40.633Z,27.23
2022-10-13T23:16:14.992Z,27.70
2022-10-13T23:18:42.216Z,27.40
2022-10-13T23:21:12.455Z,27.90
2022-10-13T23:23:39.327Z,28.13
2022-10-13T23:26:09.014Z,27.50
2022-10-13T23:28:36.388Z,29.13
2022-10-13T23:31:05.142Z,30.83
2022-10-13T23:33:32.804Z,29.83
2022-10-13T23:36:01.733Z,28.93
2022-10-13T23:38:30.363Z,29.57
2022-10-13T23:41:10.498Z,30.50
2022-10-13T23:43:37.767Z,31.80
2022-10-13T23:46:05.078Z,30.60
2022-10-13T23:48:31.997Z,33.73
2022-10-13T23:50:59.039Z,31.80
2022-10-13T23:53:25.764Z,34.53
2022-10-13T23:55:52.572Z,33.53
2022-10-13T23:58:19.313Z,32.77
